createdAt,value
2018-12-17T00:01:53.891Z,5.81
2018-12-17T00:04:24.811Z,5.91
2018-12-17T00:06:55.563Z,6.02
2018-12-17T00:09:24.417Z,6.05
2018-12-17T00:11:53.186Z,6.11
2018-12-17T00:14:22.007Z,6.04
2018-12-17T00:16:50.795Z,6.06
2018-12-17T00:19:19.533Z,6.14
2018-12-17T00:21:48.383Z,6.07
2018-12-17T00:24:17.206Z,6.10
2018-12-17T00:26:46.023Z,6.16
2018-12-17T00:29:14.818Z,6.09
2018-12-17T00:31:43.755Z,6.14
2018-12-17T00:34:12.570Z,6.15
2018-12-17T00:36:41.405Z,6.01
2018-12-17T00:39:10.250Z,6.06
2018-12-17T00:41:39.008Z,6.10
2018-12-17T00:44:07.730Z,6.19
2018-12-17T00:46:36.569Z,6.26
2018-12-17T00:49:05.356Z,6.10
2018-12-17T00:51:34.149Z,6.05
2018-12-17T00:54:02.910Z,6.05
2018-12-17T00:56:31.659Z,5.99
2018-12-17T00:59:00.383Z,6.14
2018-12-17T01:01:29.120Z,6.05
2018-12-17T01:03:57.891Z,5.98
2018-12-17T01:06:26.694Z,5.89
2018-12-17T01:08:55.547Z,5.78
2018-12-17T01:11:24.302Z,5.87
2018-12-17T01:13:53.083Z,5.95
2018-12-17T01:16:21.896Z,5.98
2018-12-17T01:18:50.621Z,6.12
2018-12-17T01:21:19.611Z,5.97
2018-12-17T01:23:48.598Z,5.99
2018-12-17T01:26:17.483Z,5.89
2018-12-17T01:28:46.339Z,5.79
2018-12-17T01:31:15.076Z,5.76
2018-12-17T01:33:43.818Z,5.60
2018-12-17T01:36:13.739Z,5.72
2018-12-17T01:38:42.463Z,5.85
2018-12-17T01:41:11.235Z,6.02
2018-12-17T01:43:39.927Z,6.09
2018-12-17T01:46:08.711Z,6.20
2018-12-17T01:48:37.379Z,6.25
2018-12-17T01:51:06.146Z,6.31
2018-12-17T01:53:34.884Z,6.23
2018-12-17T01:56:03.614Z,6.23
2018-12-17T01:58:32.339Z,6.32
2018-12-17T02:01:01.086Z,6.35
2018-12-17T02:03:29.931Z,6.33
2018-12-17T02:05:58.636Z,6.31
2018-12-17T02:08:27.373Z,6.24
2018-12-17T02:10:56.150Z,6.24
2018-12-17T02:13:24.927Z,6.29
2018-12-17T02:15:53.675Z,6.25
2018-12-17T02:18:22.415Z,6.11
2018-12-17T02:20:51.207Z,5.98
2018-12-17T02:23:19.946Z,5.91
2018-12-17T02:25:48.688Z,5.80
2018-12-17T02:28:17.375Z,5.68
2018-12-17T02:30:46.102Z,5.71
2018-12-17T02:33:14.910Z,5.69
2018-12-17T02:35:43.818Z,5.69
2018-12-17T02:38:12.543Z,5.68
2018-12-17T02:40:41.397Z,5.72
2018-12-17T02:43:10.156Z,5.70
2018-12-17T02:45:38.938Z,5.78
2018-12-17T02:48:07.702Z,5.66
2018-12-17T02:50:36.394Z,5.76
2018-12-17T02:53:05.142Z,5.78
2018-12-17T02:55:33.786Z,5.81
2018-12-17T02:58:02.543Z,5.96
2018-12-17T03:00:31.251Z,6.02
2018-12-17T03:02:59.954Z,5.80
2018-12-17T03:05:28.692Z,5.82
2018-12-17T03:07:57.398Z,5.93
2018-12-17T03:10:26.123Z,5.98
2018-12-17T03:12:54.838Z,6.00
2018-12-17T03:15:23.570Z,6.04
2018-12-17T03:17:52.292Z,6.16
2018-12-17T03:20:20.991Z,6.14
2018-12-17T03:22:49.635Z,6.22
2018-12-17T03:25:18.379Z,6.13
2018-12-17T03:27:47.030Z,6.11
2018-12-17T03:30:15.736Z,6.14
2018-12-17T03:32:44.457Z,6.22
2018-12-17T03:35:13.418Z,6.23
2018-12-17T03:37:42.156Z,6.16
2018-12-17T03:40:10.869Z,6.27
2018-12-17T03:42:39.582Z,6.33
2018-12-17T03:45:08.329Z,6.35
2018-12-17T03:47:37.046Z,6.38
2018-12-17T03:50:07.750Z,6.36
2018-12-17T03:52:36.443Z,6.42
2018-12-17T03:55:05.363Z,6.55
2018-12-17T03:57:34.074Z,6.59
2018-12-17T04:00:02.796Z,6.68
2018-12-17T04:02:31.543Z,6.59
2018-12-17T04:05:00.246Z,6.60
2018-12-17T04:07:28.970Z,6.68
2018-12-17T04:09:57.780Z,6.70
2018-12-17T04:12:26.428Z,6.66
2018-12-17T04:14:55.091Z,6.72
2018-12-17T04:17:23.850Z,6.78
2018-12-17T04:19:52.606Z,6.83
2018-12-17T04:22:21.347Z,6.86
2018-12-17T04:24:50.115Z,6.83
2018-12-17T04:27:18.867Z,6.76
2018-12-17T04:29:47.566Z,6.75
2018-12-17T04:32:16.228Z,6.76
2018-12-17T04:34:44.962Z,6.79
2018-12-17T04:37:13.742Z,6.73
2018-12-17T04:39:42.486Z,6.72
2018-12-17T04:42:11.187Z,6.65
2018-12-17T04:44:40.308Z,6.72
2018-12-17T04:47:08.975Z,6.70
2018-12-17T04:49:37.725Z,6.75
2018-12-17T04:52:06.512Z,6.78
2018-12-17T04:54:35.303Z,6.76
2018-12-17T04:57:04.073Z,6.68
2018-12-17T04:59:32.775Z,6.66
2018-12-17T05:02:01.501Z,6.65
2018-12-17T05:04:30.243Z,6.65
2018-12-17T05:06:58.959Z,6.56
2018-12-17T05:09:27.662Z,6.60
2018-12-17T05:11:56.384Z,6.56
2018-12-17T05:14:25.091Z,6.54
2018-12-17T05:16:53.826Z,6.60
2018-12-17T05:19:22.561Z,6.53
2018-12-17T05:21:51.260Z,6.63
2018-12-17T05:24:19.978Z,6.63
2018-12-17T05:26:48.695Z,6.63
2018-12-17T05:29:21.544Z,6.63
2018-12-17T05:31:48.339Z,6.66
2018-12-17T05:34:17.015Z,6.70
2018-12-17T05:36:45.814Z,6.71
2018-12-17T05:39:14.558Z,6.76
2018-12-17T05:41:43.338Z,6.70
2018-12-17T05:44:12.145Z,6.77
2018-12-17T05:46:40.811Z,6.83
2018-12-17T05:49:09.620Z,6.85
2018-12-17T05:51:38.315Z,6.81
2018-12-17T05:54:07.100Z,6.89
2018-12-17T05:56:35.870Z,6.92
2018-12-17T05:59:04.598Z,6.88
2018-12-17T06:01:33.335Z,6.83
2018-12-17T06:04:02.052Z,6.84
2018-12-17T06:06:31.778Z,6.79
2018-12-17T06:09:00.666Z,6.83
2018-12-17T06:11:29.657Z,6.90
2018-12-17T06:13:58.554Z,6.93
2018-12-17T06:16:27.349Z,6.87
2018-12-17T06:18:56.184Z,6.92
2018-12-17T06:21:24.883Z,6.81
2018-12-17T06:23:53.615Z,6.85
2018-12-17T06:26:22.366Z,6.90
2018-12-17T06:28:51.174Z,6.92
2018-12-17T06:31:19.930Z,6.91
2018-12-17T06:33:48.703Z,6.94
2018-12-17T06:36:17.425Z,6.97
2018-12-17T06:38:46.148Z,6.93
2018-12-17T06:41:14.880Z,6.87
2018-12-17T06:43:43.578Z,6.77
2018-12-17T06:46:12.286Z,6.76
2018-12-17T06:48:41.036Z,6.82
2018-12-17T06:51:09.757Z,6.83
2018-12-17T06:53:38.503Z,6.87
2018-12-17T06:56:07.235Z,6.90
2018-12-17T06:58:36.079Z,6.82
2018-12-17T07:01:04.831Z,6.90
2018-12-17T07:03:33.542Z,6.92
2018-12-17T07:06:02.299Z,6.93
2018-12-17T07:08:31.071Z,6.95
2018-12-17T07:10:59.811Z,6.88
2018-12-17T07:13:28.530Z,6.91
2018-12-17T07:15:57.279Z,6.94
2018-12-17T07:18:26.013Z,7.02
2018-12-17T07:20:55.580Z,7.00
2018-12-17T07:23:24.295Z,6.99
2018-12-17T07:25:53.083Z,6.94
2018-12-17T07:28:21.807Z,6.92
2018-12-17T07:30:50.582Z,6.92
2018-12-17T07:33:19.318Z,6.95
2018-12-17T07:35:48.114Z,6.94
2018-12-17T07:38:16.794Z,6.90
2018-12-17T07:40:46.555Z,6.87
2018-12-17T07:43:15.203Z,6.83
2018-12-17T07:45:43.967Z,6.66
2018-12-17T07:48:12.757Z,6.51
2018-12-17T07:50:41.476Z,6.44
2018-12-17T07:53:10.170Z,6.54
2018-12-17T07:55:38.924Z,6.61
2018-12-17T07:58:07.655Z,6.66
2018-12-17T08:00:36.458Z,6.72
2018-12-17T08:03:05.293Z,6.81
2018-12-17T08:05:34.422Z,6.93
2018-12-17T08:08:03.235Z,6.94
2018-12-17T08:10:31.914Z,6.98
2018-12-17T08:13:00.885Z,7.05
2018-12-17T08:15:29.574Z,7.01
2018-12-17T08:18:09.438Z,7.07
2018-12-17T08:20:38.198Z,7.09
2018-12-17T08:23:06.930Z,7.09
2018-12-17T08:25:35.662Z,7.14
2018-12-17T08:28:04.415Z,7.21
2018-12-17T08:30:33.150Z,7.23
2018-12-17T08:33:02.802Z,7.14
2018-12-17T08:35:31.607Z,7.17
2018-12-17T08:38:00.342Z,7.16
2018-12-17T08:40:29.071Z,7.25
2018-12-17T08:42:57.794Z,7.34
2018-12-17T08:45:26.462Z,7.37
2018-12-17T08:47:55.211Z,7.45
2018-12-17T08:50:23.936Z,7.49
2018-12-17T08:52:52.646Z,7.59
2018-12-17T08:55:21.393Z,7.67
2018-12-17T08:57:51.102Z,7.80
2018-12-17T09:00:19.794Z,7.90
2018-12-17T09:02:48.489Z,7.97
2018-12-17T09:05:17.206Z,8.01
2018-12-17T09:07:45.979Z,8.04
2018-12-17T09:10:14.695Z,8.04
2018-12-17T09:12:43.414Z,8.04
2018-12-17T09:15:12.194Z,8.04
2018-12-17T09:17:40.933Z,8.07
2018-12-17T09:20:09.682Z,7.90
2018-12-17T09:22:38.401Z,7.69
2018-12-17T09:25:07.344Z,7.48
2018-12-17T09:27:37.007Z,7.49
2018-12-17T09:30:06.582Z,7.55
2018-12-17T09:32:35.354Z,7.61
2018-12-17T09:35:04.150Z,7.59
2018-12-17T09:37:32.862Z,7.61
2018-12-17T09:40:01.598Z,7.72
2018-12-17T09:42:31.369Z,7.72
2018-12-17T09:45:00.764Z,7.90
2018-12-17T09:47:29.481Z,8.04
2018-12-17T09:49:58.221Z,8.12
2018-12-17T09:52:26.895Z,8.07
2018-12-17T09:54:55.606Z,8.05
2018-12-17T09:57:24.382Z,8.05
2018-12-17T09:59:53.055Z,7.92
2018-12-17T10:02:21.834Z,7.92
2018-12-17T10:04:50.550Z,7.89
2018-12-17T10:07:19.283Z,7.78
2018-12-17T10:09:47.931Z,7.74
2018-12-17T10:12:16.663Z,7.71
2018-12-17T10:14:45.314Z,7.69
2018-12-17T10:17:14.166Z,7.67
2018-12-17T10:19:42.935Z,7.71
2018-12-17T10:22:11.655Z,7.76
2018-12-17T10:24:40.939Z,7.62
2018-12-17T10:27:09.635Z,7.66
2018-12-17T10:29:38.397Z,7.70
2018-12-17T10:32:07.131Z,7.67
2018-12-17T10:34:35.787Z,7.75
2018-12-17T10:37:04.513Z,7.98
2018-12-17T10:39:33.251Z,8.01
2018-12-17T10:42:01.973Z,8.20
2018-12-17T10:44:32.618Z,8.21
2018-12-17T10:47:01.358Z,8.33
2018-12-17T10:49:30.111Z,8.40
2018-12-17T10:51:59.906Z,8.61
2018-12-17T10:54:28.636Z,8.69
2018-12-17T10:56:57.348Z,8.71
2018-12-17T10:59:26.082Z,8.74
2018-12-17T11:02:00.119Z,8.76
2018-12-17T11:04:33.258Z,8.82
2018-12-17T11:07:02.103Z,8.74
2018-12-17T11:09:30.779Z,8.80
2018-12-17T11:11:59.508Z,8.79
2018-12-17T11:14:28.296Z,8.87
2018-12-17T11:16:57.018Z,8.96
2018-12-17T11:19:25.781Z,8.81
2018-12-17T11:21:54.515Z,8.71
2018-12-17T11:24:23.511Z,8.69
2018-12-17T11:26:52.319Z,8.74
2018-12-17T11:29:21.003Z,8.67
2018-12-17T11:31:49.726Z,8.67
2018-12-17T11:34:18.443Z,8.57
2018-12-17T11:36:48.081Z,8.48
2018-12-17T11:39:16.974Z,8.35
2018-12-17T11:41:45.672Z,8.30
2018-12-17T11:44:14.392Z,8.33
2018-12-17T11:46:44.460Z,8.27
2018-12-17T11:49:13.294Z,8.28
2018-12-17T11:51:42.935Z,8.16
2018-12-17T11:54:11.670Z,8.12
2018-12-17T11:56:48.193Z,8.16
2018-12-17T11:59:16.921Z,8.26
2018-12-17T12:01:47.641Z,8.31
2018-12-17T12:04:16.268Z,8.56
2018-12-17T12:06:44.995Z,8.60
2018-12-17T12:09:18.577Z,8.61
2018-12-17T12:11:47.370Z,8.53
2018-12-17T12:14:16.158Z,8.62
2018-12-17T12:16:44.931Z,8.51
2018-12-17T12:19:13.708Z,8.37
2018-12-17T12:21:42.354Z,8.35
2018-12-17T12:24:11.010Z,8.51
2018-12-17T12:26:39.962Z,8.43
2018-12-17T12:29:08.651Z,8.35
2018-12-17T12:31:37.399Z,8.45
2018-12-17T12:34:06.147Z,8.56
2018-12-17T12:36:34.888Z,8.56
2018-12-17T12:39:04.437Z,8.57
2018-12-17T12:41:35.084Z,8.63
2018-12-17T12:44:08.759Z,8.71
2018-12-17T12:46:34.519Z,8.70
2018-12-17T12:49:04.050Z,8.63
2018-12-17T12:51:33.046Z,8.65
2018-12-17T12:54:02.779Z,8.63
2018-12-17T12:56:31.496Z,8.53
2018-12-17T12:59:00.176Z,8.53
2018-12-17T13:01:28.899Z,8.48
2018-12-17T13:03:57.679Z,8.46
2018-12-17T13:06:26.414Z,8.38
2018-12-17T13:08:55.119Z,8.31
2018-12-17T13:11:23.851Z,8.26
2018-12-17T13:13:52.613Z,8.32
2018-12-17T13:16:21.364Z,8.26
2018-12-17T13:18:50.099Z,8.32
2018-12-17T13:21:18.761Z,8.28
2018-12-17T13:23:47.448Z,8.29
2018-12-17T13:26:16.170Z,8.24
2018-12-17T13:28:44.870Z,8.25
2018-12-17T13:31:14.758Z,8.15
2018-12-17T13:33:43.630Z,8.13
2018-12-17T13:36:12.322Z,8.17
2018-12-17T13:38:41.046Z,8.25
2018-12-17T13:41:09.752Z,8.37
2018-12-17T13:43:38.399Z,8.52
2018-12-17T13:46:07.133Z,8.59
2018-12-17T13:48:35.886Z,8.51
2018-12-17T13:51:10.091Z,8.56
2018-12-17T13:53:38.758Z,8.61
2018-12-17T13:56:07.524Z,8.61
2018-12-17T13:58:36.278Z,8.55
2018-12-17T14:01:04.975Z,8.62
2018-12-17T14:03:33.676Z,8.57
2018-12-17T14:06:02.418Z,8.57
2018-12-17T14:08:31.066Z,8.56
2018-12-17T14:10:59.851Z,8.58
2018-12-17T14:13:29.446Z,8.60
2018-12-17T14:16:03.503Z,8.53
2018-12-17T14:18:37.466Z,8.53
2018-12-17T14:21:11.455Z,8.64
2018-12-17T14:23:40.174Z,8.61
2018-12-17T14:26:08.879Z,8.66
2018-12-17T14:28:37.510Z,8.67
2018-12-17T14:31:06.236Z,8.56
2018-12-17T14:33:34.963Z,8.58
2018-12-17T14:36:08.785Z,8.64
2018-12-17T14:38:38.676Z,8.64
2018-12-17T14:41:07.414Z,8.62
2018-12-17T14:43:36.159Z,8.66
2018-12-17T14:46:04.927Z,8.67
2018-12-17T14:48:33.655Z,8.61
2018-12-17T14:51:02.479Z,8.51
2018-12-17T14:53:31.200Z,8.51
2018-12-17T14:55:59.955Z,8.44
2018-12-17T14:58:28.596Z,8.50
2018-12-17T15:00:57.267Z,8.50
2018-12-17T15:03:25.915Z,8.55
2018-12-17T15:05:54.551Z,8.51
2018-12-17T15:08:23.260Z,8.42
2018-12-17T15:10:58.734Z,8.41
2018-12-17T15:13:27.478Z,8.51
2018-12-17T15:15:56.215Z,8.54
2018-12-17T15:18:24.854Z,8.48
2018-12-17T15:20:54.370Z,8.45
2018-12-17T15:23:23.118Z,8.45
2018-12-17T15:25:51.855Z,8.39
2018-12-17T15:28:20.662Z,8.35
2018-12-17T15:30:49.434Z,8.33
2018-12-17T15:33:18.167Z,8.41
2018-12-17T15:35:46.906Z,8.52
2018-12-17T15:38:17.464Z,8.57
2018-12-17T15:40:46.308Z,8.52
2018-12-17T15:43:15.028Z,8.48
2018-12-17T15:45:43.773Z,8.47
2018-12-17T15:48:12.450Z,8.46
2018-12-17T15:50:42.183Z,8.42
2018-12-17T15:53:10.906Z,8.45
2018-12-17T15:55:39.668Z,8.44
2018-12-17T15:58:08.382Z,8.51
2018-12-17T16:00:37.110Z,8.50
2018-12-17T16:03:05.834Z,8.52
2018-12-17T16:05:34.566Z,8.52
2018-12-17T16:08:03.295Z,8.64
2018-12-17T16:10:32.028Z,8.66
2018-12-17T16:13:00.751Z,8.69
2018-12-17T16:15:29.479Z,8.69
2018-12-17T16:17:58.263Z,8.66
2018-12-17T16:20:26.983Z,8.68
2018-12-17T16:22:55.779Z,8.62
2018-12-17T16:25:24.565Z,8.65
2018-12-17T16:27:53.282Z,8.71
2018-12-17T16:30:21.984Z,8.60
2018-12-17T16:32:50.711Z,8.65
2018-12-17T16:35:19.529Z,8.70
2018-12-17T16:37:48.220Z,8.75
2018-12-17T16:40:16.963Z,8.74
2018-12-17T16:42:45.691Z,8.86
2018-12-17T16:45:14.494Z,8.86
2018-12-17T16:47:43.215Z,8.74
2018-12-17T16:50:12.014Z,8.83
2018-12-17T16:52:40.719Z,8.74
2018-12-17T16:55:09.451Z,8.75
2018-12-17T16:57:38.111Z,8.74
2018-12-17T17:00:09.752Z,8.71
2018-12-17T17:02:38.594Z,8.75
2018-12-17T17:05:07.382Z,8.78
2018-12-17T17:07:36.103Z,8.82
2018-12-17T17:10:06.434Z,8.92
2018-12-17T17:12:36.089Z,8.87
2018-12-17T17:15:07.187Z,8.88
2018-12-17T17:17:36.896Z,8.89
2018-12-17T17:20:05.811Z,8.80
2018-12-17T17:22:34.504Z,8.82
2018-12-17T17:25:03.289Z,8.88
2018-12-17T17:27:32.058Z,8.89
2018-12-17T17:30:00.763Z,8.90
2018-12-17T17:32:29.495Z,8.89
2018-12-17T17:34:58.226Z,8.91
2018-12-17T17:37:26.971Z,8.99
2018-12-17T17:39:55.702Z,8.97
2018-12-17T17:42:24.418Z,8.95
2018-12-17T17:44:53.135Z,9.02
2018-12-17T17:47:21.905Z,8.95
2018-12-17T17:49:50.651Z,9.08
2018-12-17T17:52:19.382Z,9.05
2018-12-17T17:54:48.098Z,9.14
2018-12-17T17:57:16.858Z,9.03
2018-12-17T17:59:45.554Z,9.01
2018-12-17T18:02:18.711Z,8.98
2018-12-17T18:04:44.990Z,8.90
2018-12-17T18:07:13.739Z,8.90
2018-12-17T18:09:42.449Z,8.84
2018-12-17T18:12:11.158Z,8.96
2018-12-17T18:14:41.114Z,8.99
2018-12-17T18:17:09.850Z,8.95
2018-12-17T18:19:38.603Z,9.00
2018-12-17T18:22:07.335Z,8.96
2018-12-17T18:24:36.046Z,8.88
2018-12-17T18:27:04.830Z,8.99
2018-12-17T18:29:33.549Z,9.03
2018-12-17T18:32:02.342Z,9.07
2018-12-17T18:34:31.091Z,9.03
2018-12-17T18:36:59.927Z,9.07
2018-12-17T18:39:28.659Z,9.09
2018-12-17T18:41:57.435Z,9.19
2018-12-17T18:44:26.237Z,9.21
2018-12-17T18:46:54.967Z,9.28
2018-12-17T18:49:23.707Z,9.31
2018-12-17T18:51:52.435Z,9.26
2018-12-17T18:54:21.150Z,9.26
2018-12-17T18:56:49.963Z,9.23
2018-12-17T18:59:18.683Z,9.29
2018-12-17T19:01:47.341Z,9.30
2018-12-17T19:04:16.094Z,9.19
2018-12-17T19:06:44.815Z,9.20
2018-12-17T19:09:14.383Z,9.18
2018-12-17T19:11:43.115Z,9.30
2018-12-17T19:14:11.842Z,9.33
2018-12-17T19:16:40.615Z,9.40
2018-12-17T19:19:09.394Z,9.36
2018-12-17T19:21:38.136Z,9.31
2018-12-17T19:24:06.844Z,9.35
2018-12-17T19:26:35.598Z,9.27
2018-12-17T19:29:04.322Z,9.23
2018-12-17T19:31:34.736Z,9.11
2018-12-17T19:34:03.638Z,9.05
2018-12-17T19:36:32.424Z,9.07
2018-12-17T19:39:01.101Z,9.08
2018-12-17T19:41:31.193Z,9.09
2018-12-17T19:43:59.888Z,9.18
2018-12-17T19:46:28.637Z,9.20
2018-12-17T19:48:57.375Z,9.16
2018-12-17T19:51:26.116Z,9.22
2018-12-17T19:53:54.983Z,9.28
2018-12-17T19:56:23.715Z,9.26
2018-12-17T19:58:52.390Z,9.31
2018-12-17T20:01:21.095Z,9.33
2018-12-17T20:03:49.819Z,9.22
2018-12-17T20:06:18.567Z,9.15
2018-12-17T20:08:48.207Z,9.16
2018-12-17T20:11:16.951Z,9.18
2018-12-17T20:13:45.663Z,9.25
2018-12-17T20:16:14.418Z,9.28
2018-12-17T20:18:43.150Z,9.20
2018-12-17T20:21:11.886Z,9.05
2018-12-17T20:23:40.559Z,9.09
2018-12-17T20:26:09.291Z,9.23
2018-12-17T20:28:38.026Z,9.20
2018-12-17T20:31:06.777Z,9.20
2018-12-17T20:33:35.556Z,9.09
2018-12-17T20:36:04.391Z,9.23
2018-12-17T20:38:33.090Z,9.20
2018-12-17T20:41:01.776Z,9.12
2018-12-17T20:43:30.485Z,9.18
2018-12-17T20:45:59.173Z,9.23
2018-12-17T20:48:27.932Z,9.30
2018-12-17T20:50:56.706Z,9.32
2018-12-17T20:53:25.415Z,9.44
2018-12-17T20:55:54.115Z,9.42
2018-12-17T20:58:22.838Z,9.46
2018-12-17T21:00:51.558Z,9.44
2018-12-17T21:03:20.367Z,9.54
2018-12-17T21:05:49.039Z,9.63
2018-12-17T21:08:17.782Z,9.71
2018-12-17T21:10:46.499Z,9.60
2018-12-17T21:13:15.229Z,9.52
2018-12-17T21:15:43.943Z,9.51
2018-12-17T21:18:12.626Z,9.52
2018-12-17T21:20:41.404Z,9.36
2018-12-17T21:23:10.139Z,9.33
2018-12-17T21:25:38.870Z,9.32
2018-12-17T21:28:07.547Z,9.28
2018-12-17T21:30:36.250Z,9.32
2018-12-17T21:33:06.954Z,9.39
2018-12-17T21:35:35.697Z,9.53
2018-12-17T21:38:04.436Z,9.55
2018-12-17T21:40:33.163Z,9.72
2018-12-17T21:43:01.889Z,9.86
2018-12-17T21:45:30.675Z,9.82
2018-12-17T21:47:59.342Z,9.77
2018-12-17T21:50:28.090Z,9.85
2018-12-17T21:52:56.899Z,9.78
2018-12-17T21:55:25.616Z,9.72
2018-12-17T21:57:54.367Z,9.88
2018-12-17T22:00:23.046Z,9.92
2018-12-17T22:02:51.770Z,9.84
2018-12-17T22:05:20.523Z,9.94
2018-12-17T22:07:49.279Z,10.05
2018-12-17T22:10:23.452Z,10.03
2018-12-17T22:12:52.158Z,10.00
2018-12-17T22:15:20.939Z,9.81
2018-12-17T22:17:49.613Z,9.91
2018-12-17T22:20:18.348Z,10.04
2018-12-17T22:22:47.090Z,10.07
2018-12-17T22:25:15.799Z,10.05
2018-12-17T22:27:44.534Z,10.07
2018-12-17T22:30:13.291Z,10.13
2018-12-17T22:32:42.058Z,10.17
2018-12-17T22:35:10.771Z,10.26
2018-12-17T22:37:39.498Z,10.27
2018-12-17T22:40:08.914Z,10.32
2018-12-17T22:42:37.882Z,10.28
2018-12-17T22:45:06.715Z,10.15
2018-12-17T22:47:35.443Z,10.08
2018-12-17T22:50:04.697Z,9.91
2018-12-17T22:52:34.335Z,9.99
2018-12-17T22:55:03.053Z,9.87
2018-12-17T22:57:31.740Z,9.80
2018-12-17T23:00:00.375Z,9.72
2018-12-17T23:02:30.058Z,9.56
2018-12-17T23:04:58.765Z,9.60
2018-12-17T23:07:27.442Z,9.57
2018-12-17T23:10:07.407Z,9.48
2018-12-17T23:12:47.386Z,9.40
2018-12-17T23:15:27.518Z,9.46
2018-12-17T23:17:56.571Z,9.47
2018-12-17T23:20:27.178Z,9.38
2018-12-17T23:22:57.858Z,9.28
2018-12-17T23:25:28.500Z,9.33
2018-12-17T23:27:57.214Z,9.40
2018-12-17T23:30:26.047Z,9.22
2018-12-17T23:32:54.791Z,9.33
2018-12-17T23:35:23.500Z,9.26
2018-12-17T23:37:52.278Z,9.37
2018-12-17T23:40:21.051Z,9.38
2018-12-17T23:42:49.782Z,9.24
2018-12-17T23:45:19.970Z,9.29
2018-12-17T23:47:48.854Z,9.42
2018-12-17T23:50:17.588Z,9.26
2018-12-17T23:52:46.345Z,9.22
2018-12-17T23:55:14.995Z,9.31
2018-12-17T23:57:43.678Z,9.35
